sensor_id;sensor_type;location;lat;lon;timestamp;temperature;humidity
22666;DHT22;11499;49.486;11.104;2022-09-03T00:00:14;13.80;67.90
22666;DHT22;11499;49.486;11.104;2022-09-03T00:13:13;13.60;68.90
22666;DHT22;11499;49.486;11.104;2022-09-03T00:15:40;13.60;69.10
22666;DHT22;11499;49.486;11.104;2022-09-03T00:19:54;13.50;69.30
22666;DHT22;11499;49.486;11.104;2022-09-03T00:22:35;13.50;69.60
22666;DHT22;11499;49.486;11.104;2022-09-03T00:25:08;13.40;69.90
22666;DHT22;11499;49.486;11.104;2022-09-03T00:27:38;13.40;70.10
22666;DHT22;11499;49.486;11.104;2022-09-03T00:30:09;13.40;70.30
22666;DHT22;11499;49.486;11.104;2022-09-03T00:32:41;13.30;70.50
22666;DHT22;11499;49.486;11.104;2022-09-03T00:35:34;13.30;70.80
22666;DHT22;11499;49.486;11.104;2022-09-03T00:38:02;13.30;71.00
22666;DHT22;11499;49.486;11.104;2022-09-03T00:49:59;13.10;71.90
22666;DHT22;11499;49.486;11.104;2022-09-03T00:55:21;13.10;72.40
22666;DHT22;11499;49.486;11.104;2022-09-03T00:58:06;13.10;72.40
22666;DHT22;11499;49.486;11.104;2022-09-03T01:00:33;13.00;72.40
22666;DHT22;11499;49.486;11.104;2022-09-03T01:03:11;13.10;72.60
22666;DHT22;11499;49.486;11.104;2022-09-03T01:08:19;13.00;72.90
22666;DHT22;11499;49.486;11.104;2022-09-03T01:14:27;12.90;73.20
22666;DHT22;11499;49.486;11.104;2022-09-03T01:17:13;12.90;73.40
22666;DHT22;11499;49.486;11.104;2022-09-03T01:19:53;12.90;73.70
22666;DHT22;11499;49.486;11.104;2022-09-03T01:25:38;12.80;73.90
22666;DHT22;11499;49.486;11.104;2022-09-03T01:31:00;12.80;74.20
22666;DHT22;11499;49.486;11.104;2022-09-03T01:33:36;12.80;74.40
22666;DHT22;11499;49.486;11.104;2022-09-03T01:36:22;12.80;74.60
22666;DHT22;11499;49.486;11.104;2022-09-03T01:42:00;12.80;74.80
22666;DHT22;11499;49.486;11.104;2022-09-03T01:45:01;12.80;74.80
22666;DHT22;11499;49.486;11.104;2022-09-03T01:48:09;12.80;75.00
22666;DHT22;11499;49.486;11.104;2022-09-03T01:50:47;12.70;75.00
22666;DHT22;11499;49.486;11.104;2022-09-03T01:53:25;12.70;75.20
22666;DHT22;11499;49.486;11.104;2022-09-03T01:58:48;12.70;75.40
22666;DHT22;11499;49.486;11.104;2022-09-03T02:01:25;12.70;75.60
22666;DHT22;11499;49.486;11.104;2022-09-03T02:03:52;12.60;75.80
22666;DHT22;11499;49.486;11.104;2022-09-03T02:09:05;12.60;76.00
22666;DHT22;11499;49.486;11.104;2022-09-03T02:11:30;12.60;76.10
22666;DHT22;11499;49.486;11.104;2022-09-03T02:13:56;12.60;76.40
22666;DHT22;11499;49.486;11.104;2022-09-03T02:16:27;12.50;76.60
22666;DHT22;11499;49.486;11.104;2022-09-03T02:18:58;12.60;76.60
22666;DHT22;11499;49.486;11.104;2022-09-03T02:21:26;12.50;76.70
22666;DHT22;11499;49.486;11.104;2022-09-03T02:23:53;12.50;76.70
22666;DHT22;11499;49.486;11.104;2022-09-03T02:26:21;12.50;76.60
22666;DHT22;11499;49.486;11.104;2022-09-03T02:28:49;12.50;77.00
22666;DHT22;11499;49.486;11.104;2022-09-03T02:31:14;12.50;77.10
22666;DHT22;11499;49.486;11.104;2022-09-03T02:36:36;12.50;77.10
22666;DHT22;11499;49.486;11.104;2022-09-03T02:39:03;12.50;77.30
22666;DHT22;11499;49.486;11.104;2022-09-03T02:41:29;12.50;77.30
22666;DHT22;11499;49.486;11.104;2022-09-03T02:44:17;12.50;77.30
22666;DHT22;11499;49.486;11.104;2022-09-03T02:46:53;12.40;77.50
22666;DHT22;11499;49.486;11.104;2022-09-03T02:49:21;12.40;77.50
22666;DHT22;11499;49.486;11.104;2022-09-03T02:51:46;12.40;77.60
22666;DHT22;11499;49.486;11.104;2022-09-03T02:54:12;12.40;77.90
22666;DHT22;11499;49.486;11.104;2022-09-03T02:56:38;12.30;78.00
22666;DHT22;11499;49.486;11.104;2022-09-03T02:59:06;12.30;78.20
22666;DHT22;11499;49.486;11.104;2022-09-03T03:04:13;12.30;78.20
22666;DHT22;11499;49.486;11.104;2022-09-03T03:06:39;12.30;78.40
22666;DHT22;11499;49.486;11.104;2022-09-03T03:09:04;12.30;78.70
22666;DHT22;11499;49.486;11.104;2022-09-03T03:11:30;12.30;78.60
22666;DHT22;11499;49.486;11.104;2022-09-03T03:13:56;12.30;78.70
22666;DHT22;11499;49.486;11.104;2022-09-03T03:16:21;12.30;78.70
22666;DHT22;11499;49.486;11.104;2022-09-03T03:18:47;12.30;78.90
22666;DHT22;11499;49.486;11.104;2022-09-03T03:21:15;12.30;79.10
22666;DHT22;11499;49.486;11.104;2022-09-03T03:23:41;12.30;79.30
22666;DHT22;11499;49.486;11.104;2022-09-03T03:26:09;12.20;79.40
22666;DHT22;11499;49.486;11.104;2022-09-03T03:31:36;12.20;79.60
22666;DHT22;11499;49.486;11.104;2022-09-03T03:34:02;12.20;79.80
22666;DHT22;11499;49.486;11.104;2022-09-03T03:36:31;12.10;79.90
22666;DHT22;11499;49.486;11.104;2022-09-03T03:38:57;12.10;80.10
22666;DHT22;11499;49.486;11.104;2022-09-03T03:41:26;12.10;80.20
22666;DHT22;11499;49.486;11.104;2022-09-03T03:43:55;12.00;80.40
22666;DHT22;11499;49.486;11.104;2022-09-03T03:46:23;12.00;80.70
22666;DHT22;11499;49.486;11.104;2022-09-03T03:48:50;12.00;81.00
22666;DHT22;11499;49.486;11.104;2022-09-03T03:51:16;11.90;81.30
22666;DHT22;11499;49.486;11.104;2022-09-03T03:53:42;11.90;81.50
22666;DHT22;11499;49.486;11.104;2022-09-03T03:59:06;11.90;81.60
22666;DHT22;11499;49.486;11.104;2022-09-03T04:01:32;11.90;82.00
22666;DHT22;11499;49.486;11.104;2022-09-03T04:03:58;11.90;82.70
22666;DHT22;11499;49.486;11.104;2022-09-03T04:06:24;11.90;82.20
22666;DHT22;11499;49.486;11.104;2022-09-03T04:08:50;11.90;82.40
22666;DHT22;11499;49.486;11.104;2022-09-03T04:11:18;11.80;82.40
22666;DHT22;11499;49.486;11.104;2022-09-03T04:13:46;11.80;82.50
22666;DHT22;11499;49.486;11.104;2022-09-03T04:16:16;11.80;82.60
22666;DHT22;11499;49.486;11.104;2022-09-03T04:18:43;11.80;82.60
22666;DHT22;11499;49.486;11.104;2022-09-03T04:21:13;11.80;82.70
22666;DHT22;11499;49.486;11.104;2022-09-03T04:26:23;11.80;83.00
22666;DHT22;11499;49.486;11.104;2022-09-03T04:28:49;11.80;83.00
22666;DHT22;11499;49.486;11.104;2022-09-03T04:31:18;11.80;83.10
22666;DHT22;11499;49.486;11.104;2022-09-03T04:33:44;11.80;83.00
22666;DHT22;11499;49.486;11.104;2022-09-03T04:36:12;11.80;82.90
22666;DHT22;11499;49.486;11.104;2022-09-03T04:38:40;11.90;82.90
22666;DHT22;11499;49.486;11.104;2022-09-03T04:41:07;11.90;82.70
22666;DHT22;11499;49.486;11.104;2022-09-03T04:43:33;11.90;82.60
22666;DHT22;11499;49.486;11.104;2022-09-03T04:46:01;12.00;82.60
22666;DHT22;11499;49.486;11.104;2022-09-03T04:48:28;12.10;82.40
22666;DHT22;11499;49.486;11.104;2022-09-03T04:53:33;12.20;81.90
22666;DHT22;11499;49.486;11.104;2022-09-03T04:55:59;12.40;81.30
22666;DHT22;11499;49.486;11.104;2022-09-03T04:58:25;12.40;81.00
22666;DHT22;11499;49.486;11.104;2022-09-03T05:00:50;12.40;81.00
22666;DHT22;11499;49.486;11.104;2022-09-03T05:03:16;12.50;80.80
22666;DHT22;11499;49.486;11.104;2022-09-03T05:05:42;12.50;80.50
22666;DHT22;11499;49.486;11.104;2022-09-03T05:08:07;12.70;80.30
22666;DHT22;11499;49.486;11.104;2022-09-03T05:10:33;12.80;79.70
22666;DHT22;11499;49.486;11.104;2022-09-03T05:13:00;12.90;79.20
22666;DHT22;11499;49.486;11.104;2022-09-03T05:15:26;13.00;79.00
22666;DHT22;11499;49.486;11.104;2022-09-03T05:21:00;12.90;79.00
22666;DHT22;11499;49.486;11.104;2022-09-03T05:23:28;12.90;79.20
22666;DHT22;11499;49.486;11.104;2022-09-03T05:25:59;12.90;79.10
22666;DHT22;11499;49.486;11.104;2022-09-03T05:28:26;13.00;79.00
22666;DHT22;11499;49.486;11.104;2022-09-03T05:31:03;13.10;78.80
22666;DHT22;11499;49.486;11.104;2022-09-03T05:33:32;13.20;78.70
22666;DHT22;11499;49.486;11.104;2022-09-03T05:36:02;13.30;78.70
22666;DHT22;11499;49.486;11.104;2022-09-03T05:38:28;13.30;78.10
22666;DHT22;11499;49.486;11.104;2022-09-03T05:40:56;13.40;77.90
22666;DHT22;11499;49.486;11.104;2022-09-03T05:43:22;13.50;77.70
22666;DHT22;11499;49.486;11.104;2022-09-03T05:49:13;13.80;77.10
22666;DHT22;11499;49.486;11.104;2022-09-03T05:51:38;13.90;76.60
22666;DHT22;11499;49.486;11.104;2022-09-03T05:54:04;13.80;76.30
22666;DHT22;11499;49.486;11.104;2022-09-03T05:56:31;13.90;76.40
22666;DHT22;11499;49.486;11.104;2022-09-03T05:59:01;13.90;76.10
22666;DHT22;11499;49.486;11.104;2022-09-03T06:01:30;14.10;76.00
22666;DHT22;11499;49.486;11.104;2022-09-03T06:03:59;14.30;75.70
22666;DHT22;11499;49.486;11.104;2022-09-03T06:06:26;14.50;75.10
22666;DHT22;11499;49.486;11.104;2022-09-03T06:08:57;14.70;74.90
22666;DHT22;11499;49.486;11.104;2022-09-03T06:11:23;14.70;74.50
22666;DHT22;11499;49.486;11.104;2022-09-03T06:16:35;14.90;73.60
22666;DHT22;11499;49.486;11.104;2022-09-03T06:19:01;14.90;73.40
22666;DHT22;11499;49.486;11.104;2022-09-03T06:21:27;14.90;72.70
22666;DHT22;11499;49.486;11.104;2022-09-03T06:23:55;14.80;72.80
22666;DHT22;11499;49.486;11.104;2022-09-03T06:26:21;14.70;73.30
22666;DHT22;11499;49.486;11.104;2022-09-03T06:28:48;14.70;73.10
22666;DHT22;11499;49.486;11.104;2022-09-03T06:31:16;14.80;73.00
22666;DHT22;11499;49.486;11.104;2022-09-03T06:33:43;15.00;72.60
22666;DHT22;11499;49.486;11.104;2022-09-03T06:36:11;15.20;72.40
22666;DHT22;11499;49.486;11.104;2022-09-03T06:38:38;15.60;71.30
22666;DHT22;11499;49.486;11.104;2022-09-03T06:42:57;15.90;70.60
22666;DHT22;11499;49.486;11.104;2022-09-03T06:45:28;16.20;69.30
22666;DHT22;11499;49.486;11.104;2022-09-03T06:47:54;16.40;68.50
22666;DHT22;11499;49.486;11.104;2022-09-03T06:50:20;16.50;68.10
22666;DHT22;11499;49.486;11.104;2022-09-03T06:52:51;16.30;68.20
22666;DHT22;11499;49.486;11.104;2022-09-03T06:55:18;16.20;68.50
22666;DHT22;11499;49.486;11.104;2022-09-03T06:57:44;16.70;67.60
22666;DHT22;11499;49.486;11.104;2022-09-03T07:00:10;16.80;67.10
22666;DHT22;11499;49.486;11.104;2022-09-03T07:02:35;16.80;66.90
22666;DHT22;11499;49.486;11.104;2022-09-03T07:05:01;16.90;67.20
22666;DHT22;11499;49.486;11.104;2022-09-03T07:10:15;16.70;66.80
22666;DHT22;11499;49.486;11.104;2022-09-03T07:12:45;16.30;67.90
22666;DHT22;11499;49.486;11.104;2022-09-03T07:15:10;16.50;68.10
22666;DHT22;11499;49.486;11.104;2022-09-03T07:17:36;16.60;67.80
22666;DHT22;11499;49.486;11.104;2022-09-03T07:20:02;16.90;67.50
22666;DHT22;11499;49.486;11.104;2022-09-03T07:22:28;17.00;67.10
22666;DHT22;11499;49.486;11.104;2022-09-03T07:24:53;17.30;66.10
22666;DHT22;11499;49.486;11.104;2022-09-03T07:27:19;16.90;66.70
22666;DHT22;11499;49.486;11.104;2022-09-03T07:29:44;16.80;67.20
22666;DHT22;11499;49.486;11.104;2022-09-03T07:32:10;16.80;66.90
22666;DHT22;11499;49.486;11.104;2022-09-03T07:37:14;16.70;67.30
22666;DHT22;11499;49.486;11.104;2022-09-03T07:39:40;17.70;66.30
22666;DHT22;11499;49.486;11.104;2022-09-03T07:42:05;17.90;65.00
22666;DHT22;11499;49.486;11.104;2022-09-03T07:44:35;17.90;64.80
22666;DHT22;11499;49.486;11.104;2022-09-03T07:47:00;18.00;64.80
22666;DHT22;11499;49.486;11.104;2022-09-03T07:49:27;18.40;64.20
22666;DHT22;11499;49.486;11.104;2022-09-03T07:51:52;18.50;63.60
22666;DHT22;11499;49.486;11.104;2022-09-03T07:54:18;18.40;64.10
22666;DHT22;11499;49.486;11.104;2022-09-03T07:56:45;18.50;63.60
22666;DHT22;11499;49.486;11.104;2022-09-03T07:59:11;18.40;63.70
22666;DHT22;11499;49.486;11.104;2022-09-03T08:04:45;18.50;64.30
22666;DHT22;11499;49.486;11.104;2022-09-03T08:07:11;18.90;63.30
22666;DHT22;11499;49.486;11.104;2022-09-03T08:09:36;19.00;63.10
22666;DHT22;11499;49.486;11.104;2022-09-03T08:12:02;18.40;63.20
22666;DHT22;11499;49.486;11.104;2022-09-03T08:14:28;18.30;64.00
22666;DHT22;11499;49.486;11.104;2022-09-03T08:16:56;18.10;64.60
22666;DHT22;11499;49.486;11.104;2022-09-03T08:19:24;18.10;64.90
22666;DHT22;11499;49.486;11.104;2022-09-03T08:21:50;18.10;64.70
22666;DHT22;11499;49.486;11.104;2022-09-03T08:24:17;18.10;64.70
22666;DHT22;11499;49.486;11.104;2022-09-03T08:26:45;18.20;64.30
22666;DHT22;11499;49.486;11.104;2022-09-03T08:31:09;18.70;63.50
22666;DHT22;11499;49.486;11.104;2022-09-03T08:33:39;18.80;63.10
22666;DHT22;11499;49.486;11.104;2022-09-03T08:38:41;19.70;62.10
22666;DHT22;11499;49.486;11.104;2022-09-03T08:41:16;20.10;60.50
22666;DHT22;11499;49.486;11.104;2022-09-03T08:47:00;20.80;58.60
22666;DHT22;11499;49.486;11.104;2022-09-03T08:49:42;21.20;58.30
22666;DHT22;11499;49.486;11.104;2022-09-03T08:55:19;21.40;57.60
22666;DHT22;11499;49.486;11.104;2022-09-03T08:57:48;21.50;57.50
22666;DHT22;11499;49.486;11.104;2022-09-03T09:00:15;22.00;56.90
22666;DHT22;11499;49.486;11.104;2022-09-03T09:02:50;22.00;56.40
22666;DHT22;11499;49.486;11.104;2022-09-03T09:05:37;21.90;56.70
22666;DHT22;11499;49.486;11.104;2022-09-03T09:08:23;21.50;56.80
22666;DHT22;11499;49.486;11.104;2022-09-03T09:11:04;21.00;57.40
22666;DHT22;11499;49.486;11.104;2022-09-03T09:13:50;20.90;58.00
22666;DHT22;11499;49.486;11.104;2022-09-03T09:16:45;20.90;58.00
22666;DHT22;11499;49.486;11.104;2022-09-03T09:22:40;20.40;58.80
22666;DHT22;11499;49.486;11.104;2022-09-03T09:25:18;20.50;59.20
22666;DHT22;11499;49.486;11.104;2022-09-03T09:27:55;20.80;58.30
22666;DHT22;11499;49.486;11.104;2022-09-03T09:30:22;21.10;57.90
22666;DHT22;11499;49.486;11.104;2022-09-03T09:32:48;21.30;57.10
22666;DHT22;11499;49.486;11.104;2022-09-03T09:35:14;21.00;57.00
22666;DHT22;11499;49.486;11.104;2022-09-03T09:37:55;20.50;57.60
22666;DHT22;11499;49.486;11.104;2022-09-03T09:40:30;20.30;58.70
22666;DHT22;11499;49.486;11.104;2022-09-03T09:43:09;20.90;58.10
22666;DHT22;11499;49.486;11.104;2022-09-03T09:45:42;21.00;57.70
22666;DHT22;11499;49.486;11.104;2022-09-03T09:50:33;21.30;57.60
22666;DHT22;11499;49.486;11.104;2022-09-03T09:53:03;21.20;57.30
22666;DHT22;11499;49.486;11.104;2022-09-03T09:55:32;21.20;57.80
22666;DHT22;11499;49.486;11.104;2022-09-03T09:58:06;21.50;57.40
22666;DHT22;11499;49.486;11.104;2022-09-03T10:00:34;21.60;57.30
22666;DHT22;11499;49.486;11.104;2022-09-03T10:03:08;21.90;56.60
22666;DHT22;11499;49.486;11.104;2022-09-03T10:05:35;21.60;57.00
22666;DHT22;11499;49.486;11.104;2022-09-03T10:08:17;21.10;57.50
22666;DHT22;11499;49.486;11.104;2022-09-03T10:10:47;21.30;57.50
22666;DHT22;11499;49.486;11.104;2022-09-03T10:13:17;21.40;57.40
22666;DHT22;11499;49.486;11.104;2022-09-03T10:18:44;21.40;57.50
22666;DHT22;11499;49.486;11.104;2022-09-03T10:21:16;21.90;57.50
22666;DHT22;11499;49.486;11.104;2022-09-03T10:23:58;22.00;56.70
22666;DHT22;11499;49.486;11.104;2022-09-03T10:26:24;22.10;57.20
22666;DHT22;11499;49.486;11.104;2022-09-03T10:28:59;22.40;56.50
22666;DHT22;11499;49.486;11.104;2022-09-03T10:44:53;22.90;56.90
22666;DHT22;11499;49.486;11.104;2022-09-03T10:50:08;23.60;55.40
22666;DHT22;11499;49.486;11.104;2022-09-03T10:55:40;24.00;55.50
22666;DHT22;11499;49.486;11.104;2022-09-03T11:01:23;23.50;55.80
22666;DHT22;11499;49.486;11.104;2022-09-03T11:11:58;24.20;55.10
22666;DHT22;11499;49.486;11.104;2022-09-03T11:14:34;24.90;54.10
22666;DHT22;11499;49.486;11.104;2022-09-03T11:17:10;25.20;53.90
22666;DHT22;11499;49.486;11.104;2022-09-03T11:19:42;25.70;53.30
22666;DHT22;11499;49.486;11.104;2022-09-03T11:22:12;26.30;53.10
22666;DHT22;11499;49.486;11.104;2022-09-03T11:24:42;26.20;52.40
22666;DHT22;11499;49.486;11.104;2022-09-03T11:27:16;26.30;52.10
22666;DHT22;11499;49.486;11.104;2022-09-03T11:29:57;26.60;52.00
22666;DHT22;11499;49.486;11.104;2022-09-03T11:32:46;26.80;52.50
22666;DHT22;11499;49.486;11.104;2022-09-03T11:43:27;26.00;53.10
22666;DHT22;11499;49.486;11.104;2022-09-03T11:46:13;26.20;53.40
22666;DHT22;11499;49.486;11.104;2022-09-03T11:48:52;26.20;54.20
22666;DHT22;11499;49.486;11.104;2022-09-03T11:54:04;26.40;53.80
22666;DHT22;11499;49.486;11.104;2022-09-03T11:56:31;26.80;53.50
22666;DHT22;11499;49.486;11.104;2022-09-03T11:59:18;26.80;53.50
22666;DHT22;11499;49.486;11.104;2022-09-03T12:04:32;26.70;54.40
22666;DHT22;11499;49.486;11.104;2022-09-03T12:12:39;26.70;54.20
22666;DHT22;11499;49.486;11.104;2022-09-03T12:15:27;26.80;54.30
22666;DHT22;11499;49.486;11.104;2022-09-03T12:18:03;26.70;54.50
22666;DHT22;11499;49.486;11.104;2022-09-03T12:20:46;26.90;54.40
22666;DHT22;11499;49.486;11.104;2022-09-03T12:23:13;26.90;54.40
22666;DHT22;11499;49.486;11.104;2022-09-03T12:25:46;26.70;54.10
22666;DHT22;11499;49.486;11.104;2022-09-03T12:28:16;26.40;55.20
22666;DHT22;11499;49.486;11.104;2022-09-03T12:30:47;26.00;55.80
22666;DHT22;11499;49.486;11.104;2022-09-03T12:35:59;25.90;55.90
22666;DHT22;11499;49.486;11.104;2022-09-03T12:38:26;26.00;55.60
22666;DHT22;11499;49.486;11.104;2022-09-03T12:40:52;25.90;55.80
22666;DHT22;11499;49.486;11.104;2022-09-03T12:43:19;26.00;55.50
22666;DHT22;11499;49.486;11.104;2022-09-03T12:45:47;26.20;55.60
22666;DHT22;11499;49.486;11.104;2022-09-03T12:48:14;26.60;55.30
22666;DHT22;11499;49.486;11.104;2022-09-03T12:50:41;26.90;54.70
22666;DHT22;11499;49.486;11.104;2022-09-03T12:53:08;26.60;54.90
22666;DHT22;11499;49.486;11.104;2022-09-03T12:55:37;26.90;54.60
22666;DHT22;11499;49.486;11.104;2022-09-03T13:01:24;27.30;53.30
22666;DHT22;11499;49.486;11.104;2022-09-03T13:03:56;27.40;53.30
22666;DHT22;11499;49.486;11.104;2022-09-03T13:06:29;27.50;52.90
22666;DHT22;11499;49.486;11.104;2022-09-03T13:09:03;27.60;52.60
22666;DHT22;11499;49.486;11.104;2022-09-03T13:11:33;27.30;52.80
22666;DHT22;11499;49.486;11.104;2022-09-03T13:14:04;26.90;53.20
22666;DHT22;11499;49.486;11.104;2022-09-03T13:19:25;26.60;54.40
22666;DHT22;11499;49.486;11.104;2022-09-03T13:25:28;27.10;53.40
22666;DHT22;11499;49.486;11.104;2022-09-03T13:30:46;27.00;53.80
22666;DHT22;11499;49.486;11.104;2022-09-03T13:33:31;26.90;53.80
22666;DHT22;11499;49.486;11.104;2022-09-03T13:36:03;26.80;54.00
22666;DHT22;11499;49.486;11.104;2022-09-03T13:38:53;26.30;54.20
22666;DHT22;11499;49.486;11.104;2022-09-03T13:44:44;26.30;55.10
22666;DHT22;11499;49.486;11.104;2022-09-03T13:53:03;26.50;54.90
22666;DHT22;11499;49.486;11.104;2022-09-03T13:55:46;26.00;55.20
22666;DHT22;11499;49.486;11.104;2022-09-03T13:58:26;26.20;55.60
22666;DHT22;11499;49.486;11.104;2022-09-03T14:03:35;26.50;55.30
22666;DHT22;11499;49.486;11.104;2022-09-03T14:17:40;26.30;56.00
22666;DHT22;11499;49.486;11.104;2022-09-03T14:20:16;26.10;56.30
22666;DHT22;11499;49.486;11.104;2022-09-03T14:25:20;26.30;55.80
22666;DHT22;11499;49.486;11.104;2022-09-03T14:27:45;26.50;55.50
22666;DHT22;11499;49.486;11.104;2022-09-03T14:30:19;26.50;55.80
22666;DHT22;11499;49.486;11.104;2022-09-03T14:33:22;26.30;56.20
22666;DHT22;11499;49.486;11.104;2022-09-03T14:36:04;26.00;56.20
22666;DHT22;11499;49.486;11.104;2022-09-03T14:41:26;26.00;56.60
22666;DHT22;11499;49.486;11.104;2022-09-03T14:44:00;25.60;57.60
22666;DHT22;11499;49.486;11.104;2022-09-03T14:47:06;25.50;57.80
22666;DHT22;11499;49.486;11.104;2022-09-03T14:58:16;25.80;58.00
22666;DHT22;11499;49.486;11.104;2022-09-03T15:00:57;25.80;58.10
22666;DHT22;11499;49.486;11.104;2022-09-03T15:11:46;25.00;60.40
22666;DHT22;11499;49.486;11.104;2022-09-03T15:14:23;25.10;60.40
22666;DHT22;11499;49.486;11.104;2022-09-03T15:16:59;24.80;61.10
22666;DHT22;11499;49.486;11.104;2022-09-03T15:22:54;24.50;61.80
22666;DHT22;11499;49.486;11.104;2022-09-03T15:30:41;24.10;62.70
22666;DHT22;11499;49.486;11.104;2022-09-03T15:38:39;23.60;65.10
22666;DHT22;11499;49.486;11.104;2022-09-03T15:43:51;23.20;66.20
22666;DHT22;11499;49.486;11.104;2022-09-03T15:46:54;23.20;66.60
22666;DHT22;11499;49.486;11.104;2022-09-03T15:49:43;23.10;67.00
22666;DHT22;11499;49.486;11.104;2022-09-03T15:52:25;23.00;67.70
22666;DHT22;11499;49.486;11.104;2022-09-03T15:55:22;22.80;67.80
22666;DHT22;11499;49.486;11.104;2022-09-03T16:03:12;22.70;68.30
22666;DHT22;11499;49.486;11.104;2022-09-03T16:06:05;22.60;68.90
22666;DHT22;11499;49.486;11.104;2022-09-03T16:08:39;22.50;69.00
22666;DHT22;11499;49.486;11.104;2022-09-03T16:11:14;22.40;69.10
22666;DHT22;11499;49.486;11.104;2022-09-03T16:14:02;22.30;69.40
22666;DHT22;11499;49.486;11.104;2022-09-03T16:19:39;22.20;69.60
22666;DHT22;11499;49.486;11.104;2022-09-03T16:22:27;22.10;69.50
22666;DHT22;11499;49.486;11.104;2022-09-03T16:25:00;22.00;69.90
22666;DHT22;11499;49.486;11.104;2022-09-03T16:33:19;20.50;81.70
22666;DHT22;11499;49.486;11.104;2022-09-03T16:38:42;18.80;88.60
22666;DHT22;11499;49.486;11.104;2022-09-03T16:44:16;17.80;94.60
22666;DHT22;11499;49.486;11.104;2022-09-03T16:46:58;17.40;98.60
22666;DHT22;11499;49.486;11.104;2022-09-03T16:53:09;17.10;99.90
22666;DHT22;11499;49.486;11.104;2022-09-03T16:58:11;17.20;99.90
22666;DHT22;11499;49.486;11.104;2022-09-03T17:00:52;17.40;99.90
22666;DHT22;11499;49.486;11.104;2022-09-03T17:03:54;17.50;99.90
22666;DHT22;11499;49.486;11.104;2022-09-03T17:06:33;17.60;99.90
22666;DHT22;11499;49.486;11.104;2022-09-03T17:19:49;17.80;99.90
22666;DHT22;11499;49.486;11.104;2022-09-03T17:25:59;17.80;99.90
22666;DHT22;11499;49.486;11.104;2022-09-03T17:31:26;17.80;99.90
22666;DHT22;11499;49.486;11.104;2022-09-03T17:34:37;17.50;99.90
22666;DHT22;11499;49.486;11.104;2022-09-03T17:40:03;17.10;99.90
22666;DHT22;11499;49.486;11.104;2022-09-03T17:45:17;17.00;99.90
22666;DHT22;11499;49.486;11.104;2022-09-03T17:51:49;16.90;99.90
22666;DHT22;11499;49.486;11.104;2022-09-03T17:57:14;16.90;99.90
22666;DHT22;11499;49.486;11.104;2022-09-03T17:59:53;16.90;99.90
22666;DHT22;11499;49.486;11.104;2022-09-03T18:02:29;17.00;99.90
22666;DHT22;11499;49.486;11.104;2022-09-03T18:10:26;17.00;99.90
22666;DHT22;11499;49.486;11.104;2022-09-03T18:13:05;17.10;99.90
22666;DHT22;11499;49.486;11.104;2022-09-03T18:19:29;17.20;99.90
22666;DHT22;11499;49.486;11.104;2022-09-03T18:22:01;17.20;99.90
22666;DHT22;11499;49.486;11.104;2022-09-03T18:24:56;17.20;99.90
22666;DHT22;11499;49.486;11.104;2022-09-03T18:28:04;17.30;99.90
22666;DHT22;11499;49.486;11.104;2022-09-03T18:30:50;17.30;99.90
22666;DHT22;11499;49.486;11.104;2022-09-03T18:33:34;17.30;99.90
22666;DHT22;11499;49.486;11.104;2022-09-03T18:36:20;17.20;99.90
22666;DHT22;11499;49.486;11.104;2022-09-03T18:39:15;17.00;99.90
22666;DHT22;11499;49.486;11.104;2022-09-03T18:44:50;16.80;99.90
22666;DHT22;11499;49.486;11.104;2022-09-03T18:47:48;16.70;99.90
22666;DHT22;11499;49.486;11.104;2022-09-03T18:50:57;16.70;99.90
22666;DHT22;11499;49.486;11.104;2022-09-03T18:56:51;16.60;99.90
22666;DHT22;11499;49.486;11.104;2022-09-03T18:59:54;16.60;99.90
22666;DHT22;11499;49.486;11.104;2022-09-03T19:03:14;16.50;99.90
22666;DHT22;11499;49.486;11.104;2022-09-03T19:10:48;16.50;99.90
22666;DHT22;11499;49.486;11.104;2022-09-03T19:13:35;16.50;99.90
22666;DHT22;11499;49.486;11.104;2022-09-03T19:16:42;16.50;99.90
22666;DHT22;11499;49.486;11.104;2022-09-03T19:22:37;16.50;99.90
22666;DHT22;11499;49.486;11.104;2022-09-03T19:25:23;16.50;99.90
22666;DHT22;11499;49.486;11.104;2022-09-03T19:28:23;16.50;99.90
22666;DHT22;11499;49.486;11.104;2022-09-03T19:40:25;16.60;99.90
22666;DHT22;11499;49.486;11.104;2022-09-03T19:43:28;16.70;99.90
22666;DHT22;11499;49.486;11.104;2022-09-03T19:46:25;16.60;99.90
22666;DHT22;11499;49.486;11.104;2022-09-03T19:52:44;16.60;99.90
22666;DHT22;11499;49.486;11.104;2022-09-03T19:55:35;16.60;99.90
22666;DHT22;11499;49.486;11.104;2022-09-03T19:58:23;16.60;99.90
22666;DHT22;11499;49.486;11.104;2022-09-03T20:01:09;16.60;99.90
22666;DHT22;11499;49.486;11.104;2022-09-03T20:05:28;16.60;99.90
22666;DHT22;11499;49.486;11.104;2022-09-03T20:08:14;16.60;99.90
22666;DHT22;11499;49.486;11.104;2022-09-03T20:11:00;16.60;99.90
22666;DHT22;11499;49.486;11.104;2022-09-03T20:13:26;16.60;99.90
22666;DHT22;11499;49.486;11.104;2022-09-03T20:16:10;16.60;99.90
22666;DHT22;11499;49.486;11.104;2022-09-03T20:18:53;16.60;99.90
22666;DHT22;11499;49.486;11.104;2022-09-03T20:21:26;16.60;99.90
22666;DHT22;11499;49.486;11.104;2022-09-03T20:32:04;16.60;99.90
22666;DHT22;11499;49.486;11.104;2022-09-03T20:34:44;16.60;99.90
22666;DHT22;11499;49.486;11.104;2022-09-03T20:37:25;16.50;99.90
22666;DHT22;11499;49.486;11.104;2022-09-03T20:40:10;16.50;99.90
22666;DHT22;11499;49.486;11.104;2022-09-03T20:45:25;16.50;99.90
22666;DHT22;11499;49.486;11.104;2022-09-03T20:48:25;16.40;99.90
22666;DHT22;11499;49.486;11.104;2022-09-03T20:51:18;16.40;99.90
22666;DHT22;11499;49.486;11.104;2022-09-03T20:58:12;16.40;99.90
22666;DHT22;11499;49.486;11.104;2022-09-03T21:01:02;16.40;99.90
22666;DHT22;11499;49.486;11.104;2022-09-03T21:03:54;16.40;99.90
22666;DHT22;11499;49.486;11.104;2022-09-03T21:06:35;16.40;99.90
22666;DHT22;11499;49.486;11.104;2022-09-03T21:09:52;16.40;99.90
22666;DHT22;11499;49.486;11.104;2022-09-03T21:12:07;16.30;99.90
22666;DHT22;11499;49.486;11.104;2022-09-03T21:17:40;16.30;99.90
22666;DHT22;11499;49.486;11.104;2022-09-03T21:23:02;16.30;99.90
22666;DHT22;11499;49.486;11.104;2022-09-03T21:25:43;16.20;99.90
22666;DHT22;11499;49.486;11.104;2022-09-03T21:30:38;16.00;99.90
22666;DHT22;11499;49.486;11.104;2022-09-03T21:33:36;16.00;99.90
22666;DHT22;11499;49.486;11.104;2022-09-03T21:36:23;15.90;99.90
22666;DHT22;11499;49.486;11.104;2022-09-03T21:38:57;15.80;99.90
22666;DHT22;11499;49.486;11.104;2022-09-03T21:41:40;15.70;99.90